Time;durP1;ratioP1;P1;durP2;ratioP2;P2;SDS_P1;SDS_P2;PMS_P1;PMS_P2;Temp;Humidity;BMP_temperature;BMP_pressure;BME280_temperature;BME280_humidity;BME280_pressure;Samples;Min_cycle;Max_cycle;Signal;HPM_P1;HPM_P2
2022/03/06 00:02:16;;;;;;;18.07;12.90;;;2.00;64.50;;;;;;5114075;28;20445;-59
2022/03/06 00:04:43;;;;;;;14.43;11.07;;;2.00;65.50;;;;;;5114056;28;20859;-58
2022/03/06 00:07:10;;;;;;;13.97;10.80;;;2.20;65.50;;;;;;5113996;28;20488;-58
2022/03/06 00:09:37;;;;;;;14.90;10.87;;;2.20;64.90;;;;;;5114015;28;20538;-60
2022/03/06 00:12:07;;;;;;;13.53;9.97;;;2.20;65.50;;;;;;5113582;28;20553;-58
2022/03/06 00:14:34;;;;;;;18.20;11.30;;;2.20;65.00;;;;;;5113694;28;20443;-58
2022/03/06 00:17:01;;;;;;;13.00;9.40;;;2.20;65.20;;;;;;5113516;28;20866;-58
2022/03/06 00:19:28;;;;;;;11.20;9.20;;;2.20;65.60;;;;;;5113597;28;20484;-58
2022/03/06 00:21:55;;;;;;;15.47;9.90;;;2.30;65.60;;;;;;5113896;28;20444;-58
2022/03/06 00:24:23;;;;;;;17.10;11.37;;;2.30;65.70;;;;;;5113755;28;20478;-58
2022/03/06 00:26:50;;;;;;;10.97;8.83;;;2.30;65.70;;;;;;5113423;28;20887;-60
2022/03/06 00:29:18;;;;;;;11.87;9.80;;;2.30;66.20;;;;;;5113860;28;20422;-58
2022/03/06 00:31:45;;;;;;;15.13;10.37;;;2.10;65.70;;;;;;5113769;28;20434;-58
2022/03/06 00:34:12;;;;;;;13.57;9.43;;;2.10;66.70;;;;;;5113800;28;20454;-58
2022/03/06 00:36:40;;;;;;;15.90;9.60;;;2.10;66.10;;;;;;5113493;28;20462;-58
2022/03/06 00:39:07;;;;;;;17.00;11.43;;;2.10;66.30;;;;;;5113784;28;20525;-58
2022/03/06 00:41:34;;;;;;;15.50;10.40;;;2.00;66.50;;;;;;5113407;28;20937;-58
2022/03/06 00:44:01;;;;;;;16.10;10.80;;;2.00;67.00;;;;;;5113674;28;20533;-58
2022/03/06 00:46:30;;;;;;;16.20;10.60;;;2.10;67.70;;;;;;5113614;28;20524;-58
2022/03/06 00:48:57;;;;;;;11.87;9.27;;;2.10;67.20;;;;;;5113367;28;20812;-58
2022/03/06 00:51:24;;;;;;;18.63;11.43;;;2.00;67.90;;;;;;5113665;28;20474;-58
2022/03/06 00:53:52;;;;;;;17.63;11.80;;;2.00;67.50;;;;;;5113176;28;20489;-59
2022/03/06 00:56:19;;;;;;;16.50;10.63;;;2.00;67.50;;;;;;5113666;28;20487;-58
2022/03/06 00:58:46;;;;;;;15.40;10.87;;;2.00;67.70;;;;;;5115930;28;20541;-59
2022/03/06 01:01:13;;;;;;;17.97;11.27;;;1.90;67.70;;;;;;5117178;28;20458;-58
2022/03/06 01:03:42;;;;;;;18.00;11.87;;;1.90;68.00;;;;;;5116755;28;20537;-58
2022/03/06 01:06:09;;;;;;;17.40;11.27;;;1.80;68.00;;;;;;5117018;28;20817;-58
2022/03/06 01:08:36;;;;;;;14.30;11.13;;;1.70;68.90;;;;;;5117030;28;20446;-59
2022/03/06 01:11:03;;;;;;;18.03;11.23;;;1.70;69.00;;;;;;5116969;28;20525;-58
2022/03/06 01:13:31;;;;;;;18.93;11.47;;;1.70;69.30;;;;;;5116532;28;20474;-59
2022/03/06 01:15:58;;;;;;;16.37;12.13;;;1.70;69.30;;;;;;5116808;28;20449;-58
2022/03/06 01:18:25;;;;;;;14.90;9.93;;;1.70;68.50;;;;;;5116580;28;20438;-57
2022/03/06 01:20:54;;;;;;;12.90;9.17;;;1.40;69.40;;;;;;5117647;28;20450;-58
2022/03/06 01:23:21;;;;;;;16.63;10.63;;;1.40;70.40;;;;;;5116406;28;20861;-59
2022/03/06 01:25:49;;;;;;;15.07;10.47;;;1.40;70.60;;;;;;5116571;28;20447;-59
2022/03/06 01:28:16;;;;;;;13.63;10.73;;;1.50;70.50;;;;;;5116282;28;20501;-59
2022/03/06 01:30:43;;;;;;;13.57;10.13;;;1.50;70.10;;;;;;5116620;28;20449;-59
2022/03/06 01:33:10;;;;;;;15.03;9.50;;;1.30;69.90;;;;;;5116447;28;20478;-58
2022/03/06 01:35:37;;;;;;;13.87;9.90;;;1.30;70.40;;;;;;5117056;28;20537;-59
2022/03/06 01:38:06;;;;;;;21.33;10.70;;;1.40;70.60;;;;;;5116397;28;20801;-59
2022/03/06 01:40:33;;;;;;;15.13;9.57;;;1.50;70.10;;;;;;5116086;28;20929;-58
2022/03/06 01:43:00;;;;;;;14.43;9.27;;;1.50;69.70;;;;;;5116367;28;20465;-59
2022/03/06 01:45:28;;;;;;;15.10;9.23;;;1.40;70.50;;;;;;5116013;28;20443;-58
2022/03/06 01:47:56;;;;;;;17.90;11.70;;;1.40;70.40;;;;;;5116215;28;20557;-58
2022/03/06 01:50:27;;;;;;;16.43;11.60;;;1.50;70.30;;;;;;5116192;28;20442;-58
2022/03/06 01:52:55;;;;;;;12.20;10.80;;;1.60;69.50;;;;;;5116668;28;21024;-59
2022/03/06 01:55:25;;;;;;;15.67;9.87;;;1.60;69.10;;;;;;5116147;28;20454;-59
2022/03/06 01:57:55;;;;;;;14.40;10.50;;;1.50;69.40;;;;;;5115715;28;20463;-59
2022/03/06 02:00:24;;;;;;;15.10;10.83;;;1.40;69.30;;;;;;5116010;28;20521;-59
2022/03/06 02:02:52;;;;;;;16.70;10.90;;;1.40;69.30;;;;;;5115651;28;20780;-59
2022/03/06 02:05:20;;;;;;;16.77;10.87;;;1.40;70.40;;;;;;5115970;28;20449;-59
2022/03/06 02:07:47;;;;;;;12.93;10.90;;;1.50;70.80;;;;;;5115370;28;20467;-59
2022/03/06 02:10:15;;;;;;;16.90;10.87;;;1.40;70.60;;;;;;5115617;28;20443;-58
2022/03/06 02:12:44;;;;;;;17.30;11.47;;;1.40;70.10;;;;;;5115695;28;20478;-58
2022/03/06 02:15:13;;;;;;;17.90;12.10;;;1.30;70.40;;;;;;5115699;28;20503;-58
2022/03/06 02:17:41;;;;;;;17.90;11.13;;;1.30;71.20;;;;;;5115563;28;20469;-58
2022/03/06 02:20:11;;;;;;;18.43;10.67;;;1.40;71.50;;;;;;5115553;28;20542;-58
2022/03/06 02:22:42;;;;;;;14.73;10.50;;;1.40;71.30;;;;;;5115202;28;20451;-58
2022/03/06 02:25:11;;;;;;;17.47;10.17;;;1.40;71.30;;;;;;5115391;28;20999;-58
2022/03/06 02:27:39;;;;;;;12.57;10.10;;;1.40;71.50;;;;;;5114020;28;20478;-58
2022/03/06 02:30:08;;;;;;;18.40;12.20;;;1.30;71.60;;;;;;5115116;28;20952;-58
2022/03/06 02:32:38;;;;;;;15.30;10.27;;;1.30;71.60;;;;;;5115287;28;20484;-59
2022/03/06 02:35:07;;;;;;;15.67;11.37;;;1.30;72.00;;;;;;5115351;28;20457;-59
2022/03/06 02:37:35;;;;;;;16.63;10.73;;;1.20;72.30;;;;;;5114901;28;20477;-58
2022/03/06 02:40:06;;;;;;;18.90;10.67;;;1.20;72.80;;;;;;5115178;28;20548;-58
2022/03/06 02:42:36;;;;;;;18.53;10.37;;;1.20;72.80;;;;;;5115515;28;20416;-58
2022/03/06 02:45:08;;;;;;;16.50;11.70;;;1.20;73.00;;;;;;5114727;28;20455;-58
2022/03/06 02:47:35;;;;;;;14.83;10.00;;;1.10;73.60;;;;;;5114882;28;20466;-58
2022/03/06 02:50:03;;;;;;;19.07;11.37;;;1.00;73.80;;;;;;5114693;28;20496;-58
2022/03/06 02:52:30;;;;;;;17.33;10.80;;;1.00;73.90;;;;;;5114896;28;20447;-58
2022/03/06 02:54:57;;;;;;;16.97;10.20;;;1.10;74.40;;;;;;5115357;28;20435;-58
2022/03/06 02:57:26;;;;;;;12.83;10.10;;;1.00;74.10;;;;;;5114488;28;20473;-58
2022/03/06 02:59:53;;;;;;;18.20;11.53;;;1.10;74.70;;;;;;5114518;28;20784;-58
2022/03/06 03:02:24;;;;;;;14.60;11.17;;;1.00;74.90;;;;;;5114499;28;20933;-58
2022/03/06 03:04:52;;;;;;;15.80;11.13;;;1.00;75.20;;;;;;5114430;28;21012;-58
2022/03/06 03:07:19;;;;;;;15.50;10.17;;;1.00;74.90;;;;;;5114293;28;20467;-58
2022/03/06 03:09:46;;;;;;;13.00;10.33;;;1.00;74.90;;;;;;5114682;28;20450;-58
2022/03/06 03:12:13;;;;;;;18.90;11.20;;;1.00;75.40;;;;;;5114638;28;20450;-58
2022/03/06 03:14:42;;;;;;;19.17;10.80;;;1.00;75.70;;;;;;5114817;28;20478;-60
2022/03/06 03:17:09;;;;;;;13.70;10.50;;;1.00;76.10;;;;;;5114475;28;20462;-59
2022/03/06 03:19:36;;;;;;;18.07;10.47;;;1.00;76.40;;;;;;5113908;28;20443;-58
2022/03/06 03:22:04;;;;;;;15.77;10.30;;;1.00;76.30;;;;;;5114144;28;20453;-58
2022/03/06 03:24:31;;;;;;;11.53;9.43;;;1.00;75.80;;;;;;5114130;28;20978;-59
2022/03/06 03:26:58;;;;;;;18.70;11.03;;;0.90;75.80;;;;;;5114138;28;20825;-59
2022/03/06 03:29:26;;;;;;;14.97;10.93;;;0.90;76.70;;;;;;5114140;28;20437;-57
2022/03/06 03:31:54;;;;;;;15.40;10.20;;;1.00;77.40;;;;;;5114080;28;20462;-58
2022/03/06 03:34:21;;;;;;;13.67;9.70;;;1.00;76.90;;;;;;5114276;28;20489;-58
2022/03/06 03:36:48;;;;;;;16.77;11.50;;;1.00;77.20;;;;;;5114301;28;20459;-58
2022/03/06 03:39:15;;;;;;;12.67;9.57;;;1.00;77.10;;;;;;5114306;28;20532;-58
2022/03/06 03:41:43;;;;;;;13.97;10.23;;;0.90;77.50;;;;;;5113954;28;20972;-58
2022/03/06 03:44:10;;;;;;;12.70;9.33;;;;;;;;;;5113993;28;20434;-58
2022/03/06 03:46:37;;;;;;;14.43;9.70;;;0.80;78.30;;;;;;5114175;28;20469;-58
2022/03/06 03:49:06;;;;;;;18.27;10.77;;;0.70;78.90;;;;;;5113907;28;20443;-58
2022/03/06 03:51:33;;;;;;;13.47;9.77;;;0.70;79.00;;;;;;5114175;28;20499;-59
2022/03/06 03:54:01;;;;;;;17.83;10.67;;;0.70;79.40;;;;;;5114782;28;20485;-58
2022/03/06 03:56:28;;;;;;;18.37;10.30;;;0.70;79.50;;;;;;5114052;28;20530;-58
2022/03/06 03:58:55;;;;;;;14.00;9.40;;;0.80;79.50;;;;;;5113812;28;20449;-59
2022/03/06 04:01:22;;;;;;;16.30;10.50;;;0.80;79.60;;;;;;5113710;28;20484;-59
2022/03/06 04:03:49;;;;;;;16.00;10.20;;;0.80;79.90;;;;;;5113904;28;20478;-59
2022/03/06 04:06:18;;;;;;;13.63;10.10;;;0.80;80.50;;;;;;5113685;28;20481;-59
2022/03/06 04:08:45;;;;;;;21.03;12.13;;;0.80;80.60;;;;;;5113646;28;20456;-59
2022/03/06 04:11:12;;;;;;;14.00;9.87;;;0.70;80.40;;;;;;5113595;28;20446;-57
2022/03/06 04:13:39;;;;;;;13.90;11.87;;;0.60;80.80;;;;;;5114685;28;20561;-59
2022/03/06 04:16:07;;;;;;;13.50;11.03;;;0.60;80.80;;;;;;5113544;28;20447;-58
2022/03/06 04:18:34;;;;;;;21.43;13.33;;;0.60;80.80;;;;;;5113978;28;20446;-58
2022/03/06 04:21:01;;;;;;;17.40;11.13;;;0.60;81.10;;;;;;5113590;28;20956;-58
2022/03/06 04:23:30;;;;;;;14.90;10.80;;;0.70;81.10;;;;;;5113898;28;20446;-58
2022/03/06 04:25:57;;;;;;;17.43;9.80;;;0.60;81.80;;;;;;5113492;28;20458;-58
2022/03/06 04:28:24;;;;;;;16.73;11.70;;;0.60;81.70;;;;;;5113342;28;20985;-59
2022/03/06 04:30:51;;;;;;;14.37;10.50;;;0.70;82.40;;;;;;5113506;28;20442;-59
2022/03/06 04:33:18;;;;;;;17.13;10.90;;;0.70;82.30;;;;;;5117266;28;20466;-58
2022/03/06 04:35:45;;;;;;;17.77;11.20;;;0.60;82.30;;;;;;5117727;28;20458;-58
2022/03/06 04:38:12;;;;;;;15.33;10.00;;;0.60;82.90;;;;;;5117895;28;20443;-58
2022/03/06 04:40:41;;;;;;;16.60;10.60;;;0.60;83.20;;;;;;5117300;28;20456;-58
2022/03/06 04:43:08;;;;;;;16.13;11.53;;;0.70;83.20;;;;;;5117562;28;20447;-58
2022/03/06 04:45:35;;;;;;;13.73;10.30;;;0.70;82.90;;;;;;5117533;28;20806;-59
2022/03/06 04:48:02;;;;;;;18.47;11.53;;;0.70;82.90;;;;;;5117489;28;20468;-58
2022/03/06 04:50:29;;;;;;;16.60;12.40;;;0.70;83.40;;;;;;5117410;28;20461;-58
2022/03/06 04:52:57;;;;;;;19.10;11.80;;;0.60;83.50;;;;;;5117343;28;20474;-59
2022/03/06 04:55:24;;;;;;;16.73;11.00;;;0.60;84.00;;;;;;5117579;28;20458;-58
2022/03/06 04:57:52;;;;;;;12.60;10.93;;;0.60;84.40;;;;;;5117224;28;20607;-58
2022/03/06 05:00:20;;;;;;;16.70;10.83;;;0.50;84.40;;;;;;5116884;28;20479;-59
2022/03/06 05:02:47;;;;;;;20.87;11.17;;;0.40;85.00;;;;;;5117205;28;20468;-59
2022/03/06 05:05:14;;;;;;;15.60;11.20;;;0.40;85.50;;;;;;5116826;28;20530;-58
2022/03/06 05:07:41;;;;;;;16.27;11.07;;;0.40;85.60;;;;;;5116719;28;20462;-59
2022/03/06 05:10:10;;;;;;;16.03;10.20;;;0.50;85.80;;;;;;5117636;28;20510;-58
2022/03/06 05:12:38;;;;;;;16.10;11.97;;;0.50;85.60;;;;;;5116708;28;20933;-58
2022/03/06 05:15:09;;;;;;;18.20;10.90;;;0.50;85.70;;;;;;5116519;28;21008;-58
2022/03/06 05:17:36;;;;;;;21.03;11.27;;;0.50;86.00;;;;;;5116726;28;20474;-58
2022/03/06 05:20:03;;;;;;;18.13;12.40;;;0.50;86.10;;;;;;5116902;28;20442;-58
2022/03/06 05:22:30;;;;;;;14.47;10.37;;;0.40;86.00;;;;;;5116830;28;20533;-58
2022/03/06 05:24:58;;;;;;;13.80;10.60;;;0.50;87.00;;;;;;5116685;28;20451;-58
2022/03/06 05:27:26;;;;;;;15.57;11.70;;;0.50;86.90;;;;;;5116044;28;20482;-58
2022/03/06 05:29:53;;;;;;;16.13;10.23;;;0.40;86.80;;;;;;5117518;28;20434;-58
2022/03/06 05:32:21;;;;;;;15.30;11.93;;;0.40;87.00;;;;;;5116893;28;20441;-58
2022/03/06 05:34:49;;;;;;;17.10;10.53;;;0.40;87.10;;;;;;5116424;28;20478;-58
2022/03/06 05:37:16;;;;;;;19.70;11.17;;;0.30;87.40;;;;;;5116361;28;20462;-58
2022/03/06 05:39:43;;;;;;;19.40;10.60;;;0.40;88.00;;;;;;5116176;27;20482;-58
2022/03/06 05:42:10;;;;;;;17.27;11.17;;;0.50;88.20;;;;;;5116883;28;20447;-58
2022/03/06 05:44:37;;;;;;;16.47;11.50;;;0.50;88.30;;;;;;5115655;28;20529;-59
2022/03/06 05:47:05;;;;;;;17.97;11.07;;;0.60;88.70;;;;;;5115915;28;20466;-58
2022/03/06 05:49:34;;;;;;;17.03;10.60;;;0.60;88.30;;;;;;5116359;27;20449;-58
2022/03/06 05:52:02;;;;;;;17.80;11.17;;;0.70;88.40;;;;;;5115832;28;20443;-59
2022/03/06 05:54:29;;;;;;;16.80;11.57;;;0.70;88.10;;;;;;5116129;28;20853;-60
2022/03/06 05:56:57;;;;;;;14.87;11.13;;;0.70;88.00;;;;;;5115729;28;20504;-58
2022/03/06 05:59:25;;;;;;;17.83;10.33;;;0.70;87.60;;;;;;5116547;28;20442;-57
2022/03/06 06:01:52;;;;;;;18.30;10.83;;;0.70;87.70;;;;;;5115642;28;20448;-58
2022/03/06 06:04:19;;;;;;;12.63;10.40;;;0.50;88.00;;;;;;5115970;28;20443;-58
2022/03/06 06:06:48;;;;;;;18.40;13.87;;;0.70;88.90;;;;;;5115612;28;20554;-59
2022/03/06 06:09:15;;;;;;;23.67;12.30;;;0.80;88.10;;;;;;5115591;28;20885;-59
2022/03/06 06:11:42;;;;;;;23.30;12.73;;;0.80;88.20;;;;;;5115579;28;21003;-58
2022/03/06 06:14:10;;;;;;;15.70;11.13;;;0.90;88.80;;;;;;5115755;28;20478;-58
2022/03/06 06:16:37;;;;;;;17.20;11.20;;;0.90;88.00;;;;;;5115350;28;20876;-58
2022/03/06 06:19:05;;;;;;;16.17;10.97;;;0.90;88.50;;;;;;5115720;28;20533;-58
2022/03/06 06:21:32;;;;;;;16.67;11.17;;;0.80;87.60;;;;;;5115687;28;20798;-58
2022/03/06 06:24:00;;;;;;;17.00;11.13;;;0.90;88.40;;;;;;5115574;28;20463;-58
2022/03/06 06:26:28;;;;;;;16.67;10.87;;;0.80;88.30;;;;;;5115767;28;20451;-58
2022/03/06 06:28:56;;;;;;;15.80;11.97;;;0.90;88.60;;;;;;5115044;28;20838;-58
2022/03/06 06:31:24;;;;;;;15.63;11.13;;;0.90;88.60;;;;;;5115125;28;20960;-58
2022/03/06 06:33:51;;;;;;;17.77;11.90;;;0.80;88.70;;;;;;5114994;28;21015;-59
2022/03/06 06:36:18;;;;;;;15.03;12.20;;;0.90;88.80;;;;;;5116058;28;20579;-57
2022/03/06 06:38:46;;;;;;;12.80;11.33;;;1.00;89.20;;;;;;5114959;28;20452;-58
2022/03/06 06:41:15;;;;;;;17.03;11.87;;;1.00;89.10;;;;;;5115588;28;20430;-58
2022/03/06 06:43:43;;;;;;;16.47;12.80;;;1.00;89.00;;;;;;5115186;28;20454;-59
2022/03/06 06:46:10;;;;;;;18.50;11.73;;;1.00;89.10;;;;;;5115117;28;20539;-58
2022/03/06 06:48:37;;;;;;;17.67;11.30;;;1.00;88.90;;;;;;5115083;28;20485;-59
2022/03/06 06:51:05;;;;;;;15.90;10.93;;;1.00;89.10;;;;;;5114772;28;20450;-58
2022/03/06 06:53:32;;;;;;;19.03;11.53;;;1.10;88.90;;;;;;5114922;28;20444;-59
2022/03/06 06:55:59;;;;;;;20.27;12.43;;;1.20;88.70;;;;;;5113508;28;20450;-59
2022/03/06 06:58:27;;;;;;;21.77;11.80;;;1.20;88.30;;;;;;5114949;28;20443;-58
2022/03/06 07:00:55;;;;;;;18.70;12.10;;;1.30;87.70;;;;;;5114558;28;20959;-59
2022/03/06 07:03:22;;;;;;;17.47;11.57;;;1.30;88.50;;;;;;5115185;28;20958;-58
2022/03/06 07:05:49;;;;;;;17.30;12.53;;;1.40;88.80;;;;;;5114423;28;20921;-59
2022/03/06 07:08:16;;;;;;;17.73;12.20;;;1.50;88.00;;;;;;5114792;28;20446;-58
2022/03/06 07:10:43;;;;;;;17.33;11.70;;;1.50;88.10;;;;;;5114534;28;20431;-59
2022/03/06 07:13:10;;;;;;;19.80;12.40;;;1.50;87.90;;;;;;5114653;28;20449;-58
2022/03/06 07:15:39;;;;;;;16.53;12.37;;;1.40;87.40;;;;;;5114582;28;20542;-59
2022/03/06 07:18:06;;;;;;;18.53;12.13;;;1.40;87.10;;;;;;5114178;28;20491;-59
2022/03/06 07:20:33;;;;;;;17.10;11.70;;;1.40;88.00;;;;;;5114494;28;20446;-58
2022/03/06 07:23:01;;;;;;;16.60;11.20;;;1.40;87.30;;;;;;5114197;28;20443;-59
2022/03/06 07:25:28;;;;;;;16.90;12.10;;;1.50;87.20;;;;;;5114041;28;20453;-59
2022/03/06 07:27:55;;;;;;;16.47;12.10;;;1.60;87.90;;;;;;5114054;28;20589;-59
2022/03/06 07:30:22;;;;;;;14.83;11.73;;;1.50;87.20;;;;;;5114462;28;20442;-60
2022/03/06 07:32:52;;;;;;;16.70;10.80;;;1.50;88.40;;;;;;5114074;28;20442;-59
2022/03/06 07:35:21;;;;;;;16.37;12.03;;;1.50;88.30;;;;;;5114278;28;20470;-59
2022/03/06 07:37:48;;;;;;;18.03;11.20;;;1.70;88.70;;;;;;5114257;28;20462;-59
2022/03/06 07:40:17;;;;;;;19.53;13.00;;;1.70;88.00;;;;;;5114266;28;20503;-58
2022/03/06 07:42:44;;;;;;;17.57;12.70;;;1.80;88.30;;;;;;5113795;28;20818;-58
2022/03/06 07:45:12;;;;;;;16.10;11.20;;;1.70;88.50;;;;;;5113861;28;20925;-59
2022/03/06 07:47:40;;;;;;;18.10;13.00;;;1.60;87.90;;;;;;5113826;28;20553;-58
2022/03/06 07:50:10;;;;;;;15.70;11.77;;;1.70;88.30;;;;;;5113839;28;20538;-59
2022/03/06 07:52:38;;;;;;;17.00;13.23;;;1.70;87.90;;;;;;5114241;28;20416;-58
2022/03/06 07:55:06;;;;;;;18.77;12.33;;;1.60;88.00;;;;;;5113825;28;20487;-59
2022/03/06 07:57:33;;;;;;;14.87;10.40;;;1.70;88.50;;;;;;5113959;28;20481;-58
2022/03/06 08:00:01;;;;;;;20.47;12.80;;;1.70;87.50;;;;;;5114079;28;20455;-59
2022/03/06 08:02:28;;;;;;;16.07;12.33;;;1.90;88.40;;;;;;5114084;28;20451;-58
2022/03/06 08:04:55;;;;;;;16.90;12.40;;;1.90;88.20;;;;;;5114006;28;20441;-58
2022/03/06 08:07:24;;;;;;;16.77;12.33;;;1.90;88.10;;;;;;5116077;28;20466;-58
2022/03/06 08:09:51;;;;;;;17.53;11.87;;;2.10;88.20;;;;;;5118205;28;20490;-60
2022/03/06 08:12:18;;;;;;;18.30;12.67;;;2.20;87.70;;;;;;5117851;28;20967;-59
2022/03/06 08:14:45;;;;;;;15.27;11.43;;;2.10;87.40;;;;;;5117677;28;20560;-59
2022/03/06 08:17:12;;;;;;;15.63;11.70;;;2.10;86.90;;;;;;5117919;28;20500;-58
2022/03/06 08:19:39;;;;;;;15.37;13.37;;;2.20;87.10;;;;;;5117673;28;20450;-59
2022/03/06 08:22:07;;;;;;;19.50;13.00;;;2.10;86.80;;;;;;5117699;28;20449;-59
2022/03/06 08:24:36;;;;;;;18.23;11.70;;;2.00;87.00;;;;;;5118413;28;20480;-58
2022/03/06 08:27:03;;;;;;;19.00;12.67;;;2.10;87.80;;;;;;5117321;28;20533;-58
2022/03/06 08:29:30;;;;;;;19.87;12.77;;;2.20;87.30;;;;;;5117824;28;20516;-58
2022/03/06 08:31:58;;;;;;;19.23;12.50;;;2.30;86.70;;;;;;5117651;28;20446;-58
2022/03/06 08:34:25;;;;;;;20.53;12.33;;;2.20;86.20;;;;;;5117587;28;20557;-59
2022/03/06 08:36:52;;;;;;;17.77;12.47;;;2.40;86.90;;;;;;5117281;28;20462;-58
2022/03/06 08:39:19;;;;;;;19.87;12.60;;;2.50;86.50;;;;;;5117592;28;20447;-58
2022/03/06 08:41:48;;;;;;;17.20;12.13;;;2.50;85.40;;;;;;5117570;28;20456;-59
2022/03/06 08:44:15;;;;;;;16.53;11.13;;;2.50;85.00;;;;;;5117464;28;20482;-58
2022/03/06 08:46:42;;;;;;;20.53;12.70;;;2.70;85.20;;;;;;5117978;28;20463;-58
2022/03/06 08:49:09;;;;;;;17.53;12.93;;;2.70;84.10;;;;;;5117356;28;20474;-59
2022/03/06 08:51:36;;;;;;;19.57;12.47;;;2.80;85.10;;;;;;5117413;28;20450;-58
2022/03/06 08:54:03;;;;;;;17.93;12.60;;;2.90;84.50;;;;;;5117177;28;20519;-58
2022/03/06 08:56:31;;;;;;;13.80;10.60;;;3.10;91.80;;;;;;5117144;28;20909;-58
2022/03/06 08:58:59;;;;;;;18.70;12.60;;;3.10;84.70;;;;;;5116901;28;20449;-58
2022/03/06 09:01:26;;;;;;;19.90;13.97;;;3.20;83.20;;;;;;5116831;28;20812;-59
2022/03/06 09:03:54;;;;;;;23.30;12.80;;;3.30;83.00;;;;;;5117005;28;20537;-59
2022/03/06 09:06:21;;;;;;;18.87;12.10;;;3.50;83.40;;;;;;5116912;28;20468;-58
2022/03/06 09:08:48;;;;;;;22.40;13.57;;;3.40;81.00;;;;;;5116580;28;20453;-58
2022/03/06 09:11:15;;;;;;;15.93;12.27;;;3.50;82.20;;;;;;5116860;28;20959;-58
2022/03/06 09:13:42;;;;;;;16.00;11.90;;;3.60;81.90;;;;;;5116487;28;20489;-58
2022/03/06 09:16:11;;;;;;;21.27;13.40;;;3.50;80.90;;;;;;5116730;28;20486;-58
2022/03/06 09:18:38;;;;;;;16.70;10.83;;;3.60;81.60;;;;;;5115353;28;20443;-58
2022/03/06 09:21:05;;;;;;;20.00;12.30;;;3.50;79.30;;;;;;5116835;28;20828;-58
2022/03/06 09:23:33;;;;;;;16.00;11.43;;;3.50;80.40;;;;;;5116752;28;20447;-58
2022/03/06 09:26:00;;;;;;;19.43;11.50;;;3.50;80.20;;;;;;5116654;28;20465;-58
2022/03/06 09:28:27;;;;;;;18.93;12.80;;;3.60;79.70;;;;;;5116189;28;20558;-57
2022/03/06 09:30:54;;;;;;;18.07;11.80;;;3.70;79.40;;;;;;5116195;28;20447;-57
2022/03/06 09:33:23;;;;;;;17.20;10.97;;;3.70;78.90;;;;;;5116527;28;20442;-58
2022/03/06 09:35:50;;;;;;;13.47;10.30;;;3.80;78.40;;;;;;5116174;28;20483;-57
2022/03/06 09:38:17;;;;;;;17.93;12.70;;;3.70;77.50;;;;;;5116082;28;20537;-57
2022/03/06 09:40:46;;;;;;;19.90;12.10;;;3.80;77.30;;;;;;5110775;28;20450;-57
2022/03/06 09:43:16;;;;;;;16.00;11.60;;;3.90;77.80;;;;;;5116016;28;20446;-58
2022/03/06 09:45:44;;;;;;;18.70;11.00;;;4.10;76.80;;;;;;5116023;28;20790;-58
2022/03/06 09:48:12;;;;;;;17.20;11.90;;;4.30;74.40;;;;;;5116214;28;20816;-58
2022/03/06 09:50:41;;;;;;;15.60;10.87;;;4.40;74.60;;;;;;5116252;28;20453;-58
2022/03/06 09:53:08;;;;;;;18.10;11.80;;;4.40;74.20;;;;;;5115781;28;20451;-58
2022/03/06 09:55:35;;;;;;;15.20;11.07;;;4.60;74.00;;;;;;5116024;28;20482;-58
2022/03/06 09:58:03;;;;;;;15.73;11.70;;;4.40;73.40;;;;;;5116062;28;20470;-57
2022/03/06 10:00:30;;;;;;;17.90;11.20;;;4.40;74.00;;;;;;5115750;28;20932;-58
2022/03/06 10:02:58;;;;;;;15.93;10.73;;;4.70;73.80;;;;;;5115669;28;20450;-57
2022/03/06 10:05:34;;;;;;;19.00;11.53;;;4.60;71.30;;;;;;5115601;28;20448;-57
2022/03/06 10:08:21;;;;;;;13.30;10.60;;;4.70;71.00;;;;;;5115493;28;20545;-57
2022/03/06 10:10:49;;;;;;;13.73;10.60;;;5.10;68.70;;;;;;5115420;28;20490;-58
2022/03/06 10:13:29;;;;;;;17.80;11.53;;;5.80;68.30;;;;;;5115514;28;20486;-58
2022/03/06 10:16:12;;;;;;;15.13;10.23;;;6.20;64.90;;;;;;5115662;28;20477;-58
2022/03/06 10:18:41;;;;;;;16.57;10.90;;;6.80;62.00;;;;;;5115703;28;20473;-58
2022/03/06 10:21:21;;;;;;;18.23;11.53;;;7.30;75.50;;;;;;5115210;27;20442;-58
2022/03/06 10:23:51;;;;;;;16.10;10.60;;;8.10;60.00;;;;;;5115170;28;20427;-58
2022/03/06 10:26:20;;;;;;;13.43;11.57;;;8.40;58.30;;;;;;5115700;28;20473;-58
2022/03/06 10:28:50;;;;;;;15.63;10.70;;;8.50;57.50;;;;;;5115017;28;20478;-57
2022/03/06 10:31:18;;;;;;;21.73;12.90;;;8.60;56.10;;;;;;5115294;28;20497;-58
2022/03/06 10:33:56;;;;;;;12.23;10.67;;;8.40;56.30;;;;;;5115391;28;20457;-58
2022/03/06 10:36:34;;;;;;;16.97;11.60;;;8.90;56.10;;;;;;5114900;28;20482;-58
2022/03/06 10:39:12;;;;;;;16.40;11.73;;;9.50;55.30;;;;;;5114999;28;20890;-58
2022/03/06 10:41:41;;;;;;;16.83;11.87;;;9.30;55.70;;;;;;5114889;28;20897;-58
2022/03/06 10:44:11;;;;;;;13.23;11.73;;;9.40;54.60;;;;;;5114731;28;20516;-58
2022/03/06 10:46:39;;;;;;;17.80;13.27;;;8.70;54.80;;;;;;5114992;28;20463;-58
2022/03/06 10:49:12;;;;;;;14.50;12.20;;;9.00;55.40;;;;;;5115104;28;20447;-58
2022/03/06 10:51:42;;;;;;;16.10;12.00;;;9.90;54.00;;;;;;5114693;28;20461;-58
2022/03/06 10:54:11;;;;;;;13.60;11.20;;;10.80;52.60;;;;;;5114877;28;20808;-58
2022/03/06 10:56:38;;;;;;;15.53;11.10;;;11.30;52.00;;;;;;5114403;28;21006;-58
2022/03/06 10:59:07;;;;;;;13.77;11.50;;;12.10;51.90;;;;;;5114577;28;20804;-58
2022/03/06 11:01:36;;;;;;;16.33;11.47;;;11.50;50.20;;;;;;5114468;28;20935;-58
2022/03/06 11:04:05;;;;;;;14.50;10.63;;;10.40;50.00;;;;;;5114743;28;20471;-58
2022/03/06 11:06:39;;;;;;;13.10;11.07;;;9.20;51.30;;;;;;5114634;28;21029;-58
2022/03/06 11:09:10;;;;;;;13.80;10.97;;;8.00;51.80;;;;;;5114605;28;20426;-58
2022/03/06 11:11:40;;;;;;;13.83;10.70;;;7.60;52.30;;;;;;5114108;28;20435;-58
2022/03/06 11:14:08;;;;;;;11.83;9.27;;;;;;;;;;5114514;28;20450;-58
2022/03/06 11:16:36;;;;;;;13.60;10.10;;;7.10;52.60;;;;;;5114423;28;20486;-58
2022/03/06 11:19:04;;;;;;;13.73;10.80;;;6.90;52.80;;;;;;5114185;28;20443;-58
2022/03/06 11:21:35;;;;;;;15.10;10.77;;;7.00;53.50;;;;;;5114119;28;20944;-58
2022/03/06 11:24:07;;;;;;;12.80;9.77;;;;;;;;;;5114238;28;20431;-58
2022/03/06 11:27:20;;;;;;;15.37;11.10;;;7.30;51.00;;;;;;5114397;28;20451;-58
2022/03/06 11:30:05;;;;;;;12.60;9.87;;;7.60;51.80;;;;;;5094842;28;20450;-58
2022/03/06 11:32:35;;;;;;;15.60;11.33;;;8.10;52.00;;;;;;5114315;28;20431;-58
2022/03/06 11:35:07;;;;;;;11.43;8.90;;;9.30;52.20;;;;;;5114162;28;20453;-58
2022/03/06 11:37:52;;;;;;;12.43;9.60;;;10.30;49.80;;;;;;5113894;28;20541;-58
2022/03/06 11:40:40;;;;;;;11.47;9.17;;;10.50;47.80;;;;;;5114098;28;20443;-58
2022/03/06 11:43:09;;;;;;;11.10;9.17;;;10.50;49.80;;;;;;5114687;28;20782;-58
2022/03/06 11:45:51;;;;;;;14.63;11.83;;;10.40;48.70;;;;;;5114197;28;20446;-58
2022/03/06 11:48:41;;;;;;;11.17;9.60;;;10.40;47.90;;;;;;5114150;28;20450;-58
2022/03/06 11:51:28;;;;;;;13.50;10.50;;;10.70;49.00;;;;;;5105065;28;20454;-58
2022/03/06 11:53:58;;;;;;;12.57;10.23;;;12.10;47.90;;;;;;5114028;28;20427;-58
2022/03/06 11:56:58;;;;;;;13.73;9.37;;;;;;;;;;5113928;28;20581;-58
2022/03/06 11:59:35;;;;;;;13.47;10.90;;;11.80;46.10;;;;;;5114050;28;20761;-58
2022/03/06 12:02:08;;;;;;;14.77;10.30;;;12.20;46.70;;;;;;5113725;28;20965;-58
2022/03/06 12:04:38;;;;;;;11.90;10.60;;;11.50;46.30;;;;;;5114011;28;20427;-58
2022/03/06 12:07:08;;;;;;;12.57;10.93;;;11.80;46.10;;;;;;5113597;28;20454;-58
2022/03/06 12:09:38;;;;;;;12.63;9.83;;;12.10;45.70;;;;;;5113539;28;20478;-58
2022/03/06 12:12:08;;;;;;;12.07;9.40;;;12.80;45.70;;;;;;5113635;28;20443;-58
2022/03/06 12:14:38;;;;;;;12.50;9.73;;;11.30;44.50;;;;;;5113585;28;20446;-58
2022/03/06 12:17:30;;;;;;;11.83;9.67;;;10.00;45.70;;;;;;5113480;28;21006;-57
2022/03/06 12:20:26;;;;;;;13.77;9.20;;;9.30;46.80;;;;;;5114168;28;20427;-57
2022/03/06 12:23:02;;;;;;;12.33;9.47;;;8.50;48.60;;;;;;5113555;28;20476;-58
2022/03/06 12:25:31;;;;;;;12.00;9.00;;;7.80;47.90;;;;;;5113931;28;20458;-57
2022/03/06 12:28:27;;;;;;;14.43;10.40;;;7.80;48.50;;;;;;5113044;28;20482;-58
2022/03/06 12:30:57;;;;;;;12.23;10.53;;;7.80;48.10;;;;;;5113450;28;20484;-58
2022/03/06 12:33:39;;;;;;;10.43;8.87;;;7.90;48.40;;;;;;5114738;28;20461;-58
2022/03/06 12:36:18;;;;;;;10.93;9.20;;;7.80;48.10;;;;;;5113005;28;20470;-58
2022/03/06 12:38:46;;;;;;;10.80;8.80;;;7.80;48.70;;;;;;5113402;28;20892;-57
2022/03/06 12:41:14;;;;;;;12.53;9.67;;;7.70;49.00;;;;;;5113594;28;20443;-58
2022/03/06 12:43:48;;;;;;;14.23;9.60;;;7.90;48.80;;;;;;5113297;28;20526;-57
2022/03/06 12:46:18;;;;;;;14.27;9.17;;;8.30;50.10;;;;;;5113600;28;20467;-58
2022/03/06 12:48:49;;;;;;;12.10;10.90;;;8.50;49.40;;;;;;5113300;28;20502;-58